sensor_id;sensor_type;location;lat;lon;timestamp;P1;durP1;ratioP1;P2;durP2;ratioP2
335;SDS011;156;48.738;9.228;2023-01-01T00:00:12;24.67;;;11.27;;
335;SDS011;156;48.738;9.228;2023-01-01T00:02:39;18.63;;;14.82;;
335;SDS011;156;48.738;9.228;2023-01-01T00:05:07;16.65;;;15.75;;
335;SDS011;156;48.738;9.228;2023-01-01T00:07:35;13.90;;;12.43;;
335;SDS011;156;48.738;9.228;2023-01-01T00:10:02;10.55;;;9.05;;
335;SDS011;156;48.738;9.228;2023-01-01T00:12:47;13.55;;;9.80;;
335;SDS011;156;48.738;9.228;2023-01-01T00:15:17;10.80;;;8.80;;
335;SDS011;156;48.738;9.228;2023-01-01T00:17:44;9.27;;;8.77;;
335;SDS011;156;48.738;9.228;2023-01-01T00:20:11;12.88;;;8.25;;
335;SDS011;156;48.738;9.228;2023-01-01T00:22:39;10.65;;;6.60;;
335;SDS011;156;48.738;9.228;2023-01-01T00:25:06;9.63;;;6.65;;
335;SDS011;156;48.738;9.228;2023-01-01T00:27:33;4.80;;;4.53;;
335;SDS011;156;48.738;9.228;2023-01-01T00:30:00;5.35;;;5.03;;
335;SDS011;156;48.738;9.228;2023-01-01T00:32:28;5.28;;;3.45;;
335;SDS011;156;48.738;9.228;2023-01-01T00:34:55;6.22;;;4.15;;
335;SDS011;156;48.738;9.228;2023-01-01T00:37:22;4.20;;;3.40;;
335;SDS011;156;48.738;9.228;2023-01-01T00:39:52;2.65;;;2.45;;
335;SDS011;156;48.738;9.228;2023-01-01T00:42:19;5.20;;;3.83;;
335;SDS011;156;48.738;9.228;2023-01-01T00:44:46;6.72;;;4.35;;
335;SDS011;156;48.738;9.228;2023-01-01T00:47:13;6.22;;;4.68;;
335;SDS011;156;48.738;9.228;2023-01-01T00:49:39;3.55;;;2.80;;
335;SDS011;156;48.738;9.228;2023-01-01T00:52:06;1.33;;;1.23;;
335;SDS011;156;48.738;9.228;2023-01-01T00:54:33;6.00;;;3.90;;
335;SDS011;156;48.738;9.228;2023-01-01T00:57:01;3.22;;;2.25;;
335;SDS011;156;48.738;9.228;2023-01-01T00:59:28;5.53;;;2.50;;
335;SDS011;156;48.738;9.228;2023-01-01T01:01:55;3.40;;;2.67;;
335;SDS011;156;48.738;9.228;2023-01-01T01:04:22;3.42;;;1.58;;
335;SDS011;156;48.738;9.228;2023-01-01T01:06:50;2.90;;;2.70;;
335;SDS011;156;48.738;9.228;2023-01-01T01:09:17;2.05;;;1.95;;
335;SDS011;156;48.738;9.228;2023-01-01T01:11:44;6.50;;;4.43;;
335;SDS011;156;48.738;9.228;2023-01-01T01:14:12;2.88;;;2.67;;
335;SDS011;156;48.738;9.228;2023-01-01T01:16:39;2.05;;;1.90;;
335;SDS011;156;48.738;9.228;2023-01-01T01:19:06;11.80;;;5.15;;
335;SDS011;156;48.738;9.228;2023-01-01T01:21:37;3.03;;;2.42;;
335;SDS011;156;48.738;9.228;2023-01-01T01:24:05;2.65;;;1.85;;
335;SDS011;156;48.738;9.228;2023-01-01T01:26:32;5.18;;;4.78;;
335;SDS011;156;48.738;9.228;2023-01-01T01:29:00;2.97;;;1.95;;
335;SDS011;156;48.738;9.228;2023-01-01T01:31:29;4.78;;;4.43;;
335;SDS011;156;48.738;9.228;2023-01-01T01:33:58;0.80;;;0.57;;
335;SDS011;156;48.738;9.228;2023-01-01T01:36:25;3.28;;;2.45;;
335;SDS011;156;48.738;9.228;2023-01-01T01:38:52;4.68;;;4.05;;
335;SDS011;156;48.738;9.228;2023-01-01T01:41:20;2.80;;;2.60;;
335;SDS011;156;48.738;9.228;2023-01-01T01:43:52;2.17;;;2.00;;
335;SDS011;156;48.738;9.228;2023-01-01T01:46:24;1.00;;;0.90;;
335;SDS011;156;48.738;9.228;2023-01-01T01:48:55;3.83;;;3.03;;
335;SDS011;156;48.738;9.228;2023-01-01T01:51:26;3.35;;;2.85;;
335;SDS011;156;48.738;9.228;2023-01-01T01:53:56;7.13;;;4.00;;
335;SDS011;156;48.738;9.228;2023-01-01T01:56:29;4.93;;;4.20;;
335;SDS011;156;48.738;9.228;2023-01-01T01:59:02;6.68;;;4.70;;
335;SDS011;156;48.738;9.228;2023-01-01T02:01:29;7.25;;;3.15;;
335;SDS011;156;48.738;9.228;2023-01-01T02:03:57;6.78;;;5.10;;
335;SDS011;156;48.738;9.228;2023-01-01T02:06:26;7.30;;;5.68;;
335;SDS011;156;48.738;9.228;2023-01-01T02:08:54;3.38;;;2.92;;
335;SDS011;156;48.738;9.228;2023-01-01T02:11:23;5.13;;;3.83;;
335;SDS011;156;48.738;9.228;2023-01-01T02:13:50;4.55;;;2.80;;
335;SDS011;156;48.738;9.228;2023-01-01T02:16:19;4.50;;;3.22;;
335;SDS011;156;48.738;9.228;2023-01-01T02:18:50;6.00;;;3.40;;
335;SDS011;156;48.738;9.228;2023-01-01T02:21:24;5.07;;;4.75;;
335;SDS011;156;48.738;9.228;2023-01-01T02:23:57;7.10;;;5.13;;
335;SDS011;156;48.738;9.228;2023-01-01T02:26:48;8.85;;;8.27;;
335;SDS011;156;48.738;9.228;2023-01-01T02:29:29;5.88;;;2.45;;
335;SDS011;156;48.738;9.228;2023-01-01T02:32:07;7.93;;;5.97;;
335;SDS011;156;48.738;9.228;2023-01-01T02:34:37;4.55;;;3.88;;
335;SDS011;156;48.738;9.228;2023-01-01T02:37:07;7.85;;;4.72;;
335;SDS011;156;48.738;9.228;2023-01-01T02:39:38;5.38;;;4.07;;
335;SDS011;156;48.738;9.228;2023-01-01T02:42:10;7.45;;;6.13;;
335;SDS011;156;48.738;9.228;2023-01-01T02:44:40;3.47;;;3.13;;
335;SDS011;156;48.738;9.228;2023-01-01T02:47:11;5.35;;;5.05;;
335;SDS011;156;48.738;9.228;2023-01-01T02:49:43;7.47;;;5.38;;
335;SDS011;156;48.738;9.228;2023-01-01T02:52:19;8.65;;;4.53;;
335;SDS011;156;48.738;9.228;2023-01-01T02:54:58;6.82;;;6.43;;
335;SDS011;156;48.738;9.228;2023-01-01T02:57:33;4.72;;;3.28;;
335;SDS011;156;48.738;9.228;2023-01-01T03:00:06;10.15;;;6.18;;
335;SDS011;156;48.738;9.228;2023-01-01T03:02:46;2.10;;;1.80;;
335;SDS011;156;48.738;9.228;2023-01-01T03:05:21;5.72;;;3.88;;
335;SDS011;156;48.738;9.228;2023-01-01T03:07:58;5.15;;;4.85;;
335;SDS011;156;48.738;9.228;2023-01-01T03:10:36;7.82;;;1.85;;
335;SDS011;156;48.738;9.228;2023-01-01T03:13:10;4.78;;;3.85;;
335;SDS011;156;48.738;9.228;2023-01-01T03:15:47;3.65;;;2.90;;
335;SDS011;156;48.738;9.228;2023-01-01T03:18:22;2.38;;;1.77;;
335;SDS011;156;48.738;9.228;2023-01-01T03:20:53;12.07;;;6.03;;
335;SDS011;156;48.738;9.228;2023-01-01T03:23:24;5.13;;;1.95;;
335;SDS011;156;48.738;9.228;2023-01-01T03:25:56;3.55;;;3.22;;
335;SDS011;156;48.738;9.228;2023-01-01T03:28:27;2.40;;;1.88;;
335;SDS011;156;48.738;9.228;2023-01-01T03:31:00;5.85;;;2.75;;
335;SDS011;156;48.738;9.228;2023-01-01T03:33:29;2.60;;;1.55;;
335;SDS011;156;48.738;9.228;2023-01-01T03:36:04;2.20;;;1.35;;
335;SDS011;156;48.738;9.228;2023-01-01T03:38:34;0.75;;;0.70;;
335;SDS011;156;48.738;9.228;2023-01-01T03:41:06;1.67;;;1.42;;
335;SDS011;156;48.738;9.228;2023-01-01T03:43:38;2.25;;;1.50;;
335;SDS011;156;48.738;9.228;2023-01-01T03:46:11;4.65;;;3.03;;
335;SDS011;156;48.738;9.228;2023-01-01T03:48:39;3.20;;;2.95;;
335;SDS011;156;48.738;9.228;2023-01-01T03:51:22;4.93;;;3.47;;
335;SDS011;156;48.738;9.228;2023-01-01T03:53:58;5.05;;;2.20;;
335;SDS011;156;48.738;9.228;2023-01-01T03:56:32;4.30;;;2.90;;
335;SDS011;156;48.738;9.228;2023-01-01T03:59:06;8.95;;;2.45;;
335;SDS011;156;48.738;9.228;2023-01-01T04:01:41;2.33;;;2.00;;
335;SDS011;156;48.738;9.228;2023-01-01T04:04:11;2.17;;;1.58;;
335;SDS011;156;48.738;9.228;2023-01-01T04:06:40;3.60;;;2.22;;
335;SDS011;156;48.738;9.228;2023-01-01T04:09:08;1.80;;;1.63;;
335;SDS011;156;48.738;9.228;2023-01-01T04:11:39;2.67;;;2.13;;
335;SDS011;156;48.738;9.228;2023-01-01T04:14:28;3.33;;;2.55;;
335;SDS011;156;48.738;9.228;2023-01-01T04:16:58;3.85;;;3.10;;
335;SDS011;156;48.738;9.228;2023-01-01T04:19:26;4.07;;;1.42;;
335;SDS011;156;48.738;9.228;2023-01-01T04:21:53;2.40;;;1.52;;
335;SDS011;156;48.738;9.228;2023-01-01T04:24:20;4.80;;;2.78;;
335;SDS011;156;48.738;9.228;2023-01-01T04:26:47;4.10;;;2.35;;
335;SDS011;156;48.738;9.228;2023-01-01T04:29:15;5.85;;;3.03;;
335;SDS011;156;48.738;9.228;2023-01-01T04:31:42;3.30;;;1.77;;
335;SDS011;156;48.738;9.228;2023-01-01T04:34:10;2.55;;;2.05;;
335;SDS011;156;48.738;9.228;2023-01-01T04:36:37;28.95;;;5.05;;
335;SDS011;156;48.738;9.228;2023-01-01T04:39:04;3.35;;;2.38;;
335;SDS011;156;48.738;9.228;2023-01-01T04:41:31;2.67;;;2.55;;
335;SDS011;156;48.738;9.228;2023-01-01T04:43:58;2.67;;;1.35;;
335;SDS011;156;48.738;9.228;2023-01-01T04:46:25;3.28;;;2.03;;
335;SDS011;156;48.738;9.228;2023-01-01T04:48:52;1.67;;;0.65;;
335;SDS011;156;48.738;9.228;2023-01-01T04:51:21;5.75;;;1.80;;
335;SDS011;156;48.738;9.228;2023-01-01T04:53:47;3.53;;;3.28;;
335;SDS011;156;48.738;9.228;2023-01-01T04:56:15;3.75;;;1.52;;
335;SDS011;156;48.738;9.228;2023-01-01T04:58:44;6.10;;;1.77;;
335;SDS011;156;48.738;9.228;2023-01-01T05:01:15;3.95;;;1.58;;
335;SDS011;156;48.738;9.228;2023-01-01T05:03:44;1.13;;;0.50;;
335;SDS011;156;48.738;9.228;2023-01-01T05:06:11;1.42;;;1.30;;
335;SDS011;156;48.738;9.228;2023-01-01T05:08:41;2.08;;;1.92;;
335;SDS011;156;48.738;9.228;2023-01-01T05:11:10;3.08;;;1.95;;
335;SDS011;156;48.738;9.228;2023-01-01T05:13:39;5.05;;;2.42;;
335;SDS011;156;48.738;9.228;2023-01-01T05:16:08;3.83;;;2.53;;
335;SDS011;156;48.738;9.228;2023-01-01T05:18:36;1.90;;;1.80;;
335;SDS011;156;48.738;9.228;2023-01-01T05:21:04;1.15;;;1.10;;
335;SDS011;156;48.738;9.228;2023-01-01T05:23:33;2.05;;;1.73;;
335;SDS011;156;48.738;9.228;2023-01-01T05:26:08;2.00;;;1.23;;
335;SDS011;156;48.738;9.228;2023-01-01T05:28:36;1.77;;;0.95;;
335;SDS011;156;48.738;9.228;2023-01-01T05:31:04;1.05;;;0.98;;
335;SDS011;156;48.738;9.228;2023-01-01T05:33:32;4.30;;;1.75;;
335;SDS011;156;48.738;9.228;2023-01-01T05:36:00;1.88;;;1.05;;
335;SDS011;156;48.738;9.228;2023-01-01T05:38:27;1.85;;;1.35;;
335;SDS011;156;48.738;9.228;2023-01-01T05:40:55;1.55;;;0.80;;
335;SDS011;156;48.738;9.228;2023-01-01T05:43:23;1.15;;;1.13;;
335;SDS011;156;48.738;9.228;2023-01-01T05:45:57;2.05;;;1.60;;
335;SDS011;156;48.738;9.228;2023-01-01T05:48:26;0.80;;;0.65;;
335;SDS011;156;48.738;9.228;2023-01-01T05:50:53;1.02;;;0.85;;
335;SDS011;156;48.738;9.228;2023-01-01T05:53:20;0.82;;;0.47;;
335;SDS011;156;48.738;9.228;2023-01-01T05:55:51;1.90;;;1.42;;
335;SDS011;156;48.738;9.228;2023-01-01T05:58:18;1.30;;;1.20;;
335;SDS011;156;48.738;9.228;2023-01-01T06:00:46;0.50;;;0.30;;
335;SDS011;156;48.738;9.228;2023-01-01T06:03:13;2.80;;;2.60;;
335;SDS011;156;48.738;9.228;2023-01-01T06:05:40;0.82;;;0.60;;
335;SDS011;156;48.738;9.228;2023-01-01T06:08:07;3.88;;;1.48;;
335;SDS011;156;48.738;9.228;2023-01-01T06:10:34;1.58;;;1.38;;
335;SDS011;156;48.738;9.228;2023-01-01T06:13:01;1.50;;;1.40;;
335;SDS011;156;48.738;9.228;2023-01-01T06:15:28;4.13;;;2.20;;
335;SDS011;156;48.738;9.228;2023-01-01T06:17:57;1.30;;;0.90;;
335;SDS011;156;48.738;9.228;2023-01-01T06:20:24;2.72;;;2.20;;
335;SDS011;156;48.738;9.228;2023-01-01T06:22:54;0.80;;;0.45;;
335;SDS011;156;48.738;9.228;2023-01-01T06:25:21;3.08;;;1.83;;
335;SDS011;156;48.738;9.228;2023-01-01T06:27:48;2.28;;;1.67;;
335;SDS011;156;48.738;9.228;2023-01-01T06:30:15;3.10;;;0.60;;
335;SDS011;156;48.738;9.228;2023-01-01T06:32:42;2.05;;;0.90;;
335;SDS011;156;48.738;9.228;2023-01-01T06:35:10;2.35;;;1.10;;
335;SDS011;156;48.738;9.228;2023-01-01T06:37:38;1.35;;;0.85;;
335;SDS011;156;48.738;9.228;2023-01-01T06:40:05;2.70;;;1.92;;
335;SDS011;156;48.738;9.228;2023-01-01T06:42:33;2.97;;;1.50;;
335;SDS011;156;48.738;9.228;2023-01-01T06:44:59;0.73;;;0.50;;
335;SDS011;156;48.738;9.228;2023-01-01T06:47:31;0.85;;;0.82;;
335;SDS011;156;48.738;9.228;2023-01-01T06:49:59;2.80;;;2.40;;
335;SDS011;156;48.738;9.228;2023-01-01T06:52:27;1.58;;;1.48;;
335;SDS011;156;48.738;9.228;2023-01-01T06:54:54;2.78;;;1.05;;
335;SDS011;156;48.738;9.228;2023-01-01T06:57:21;1.50;;;0.90;;
335;SDS011;156;48.738;9.228;2023-01-01T06:59:48;4.30;;;0.95;;
335;SDS011;156;48.738;9.228;2023-01-01T07:02:15;4.38;;;1.27;;
335;SDS011;156;48.738;9.228;2023-01-01T07:04:42;0.98;;;0.75;;
335;SDS011;156;48.738;9.228;2023-01-01T07:07:09;0.95;;;0.85;;
335;SDS011;156;48.738;9.228;2023-01-01T07:09:37;1.80;;;0.90;;
335;SDS011;156;48.738;9.228;2023-01-01T07:12:04;1.98;;;0.95;;
335;SDS011;156;48.738;9.228;2023-01-01T07:14:32;0.60;;;0.45;;
335;SDS011;156;48.738;9.228;2023-01-01T07:16:59;3.80;;;1.20;;
335;SDS011;156;48.738;9.228;2023-01-01T07:19:25;0.60;;;0.45;;
335;SDS011;156;48.738;9.228;2023-01-01T07:21:52;0.90;;;0.57;;
335;SDS011;156;48.738;9.228;2023-01-01T07:24:20;0.65;;;0.35;;
335;SDS011;156;48.738;9.228;2023-01-01T07:26:48;1.20;;;0.88;;
335;SDS011;156;48.738;9.228;2023-01-01T07:29:15;1.50;;;1.35;;
335;SDS011;156;48.738;9.228;2023-01-01T07:31:42;1.45;;;0.77;;
335;SDS011;156;48.738;9.228;2023-01-01T07:34:11;1.15;;;0.45;;
335;SDS011;156;48.738;9.228;2023-01-01T07:36:39;1.20;;;1.10;;
335;SDS011;156;48.738;9.228;2023-01-01T07:39:07;1.08;;;0.68;;
335;SDS011;156;48.738;9.228;2023-01-01T07:41:33;2.40;;;1.10;;
335;SDS011;156;48.738;9.228;2023-01-01T07:44:02;1.30;;;0.55;;
335;SDS011;156;48.738;9.228;2023-01-01T07:46:34;2.03;;;1.67;;
335;SDS011;156;48.738;9.228;2023-01-01T07:49:02;2.08;;;1.45;;
335;SDS011;156;48.738;9.228;2023-01-01T07:51:29;1.17;;;0.47;;
335;SDS011;156;48.738;9.228;2023-01-01T07:53:56;3.35;;;1.50;;
335;SDS011;156;48.738;9.228;2023-01-01T07:56:23;1.65;;;1.33;;
335;SDS011;156;48.738;9.228;2023-01-01T07:58:49;0.50;;;0.30;;
335;SDS011;156;48.738;9.228;2023-01-01T08:01:18;1.67;;;1.33;;
335;SDS011;156;48.738;9.228;2023-01-01T08:03:49;0.60;;;0.60;;
335;SDS011;156;48.738;9.228;2023-01-01T08:06:17;0.50;;;0.30;;
335;SDS011;156;48.738;9.228;2023-01-01T08:08:46;0.45;;;0.20;;
335;SDS011;156;48.738;9.228;2023-01-01T08:11:13;0.50;;;0.20;;
335;SDS011;156;48.738;9.228;2023-01-01T08:13:40;1.48;;;1.38;;
335;SDS011;156;48.738;9.228;2023-01-01T08:16:07;0.50;;;0.20;;
335;SDS011;156;48.738;9.228;2023-01-01T08:18:35;0.50;;;0.20;;
335;SDS011;156;48.738;9.228;2023-01-01T08:21:02;0.50;;;0.20;;
335;SDS011;156;48.738;9.228;2023-01-01T08:23:30;0.70;;;0.63;;
335;SDS011;156;48.738;9.228;2023-01-01T08:25:57;0.60;;;0.40;;
335;SDS011;156;48.738;9.228;2023-01-01T08:28:25;0.50;;;0.32;;
335;SDS011;156;48.738;9.228;2023-01-01T08:30:55;2.78;;;2.58;;
335;SDS011;156;48.738;9.228;2023-01-01T08:33:23;1.05;;;0.52;;
335;SDS011;156;48.738;9.228;2023-01-01T08:35:51;2.20;;;1.33;;
335;SDS011;156;48.738;9.228;2023-01-01T08:38:18;1.20;;;0.70;;
335;SDS011;156;48.738;9.228;2023-01-01T08:40:45;2.50;;;1.17;;
335;SDS011;156;48.738;9.228;2023-01-01T08:43:12;4.43;;;2.15;;
335;SDS011;156;48.738;9.228;2023-01-01T08:45:38;2.25;;;1.45;;
335;SDS011;156;48.738;9.228;2023-01-01T08:48:05;4.60;;;2.05;;
335;SDS011;156;48.738;9.228;2023-01-01T08:50:32;1.70;;;1.27;;
335;SDS011;156;48.738;9.228;2023-01-01T08:53:00;0.85;;;0.77;;
335;SDS011;156;48.738;9.228;2023-01-01T08:55:28;0.88;;;0.57;;
335;SDS011;156;48.738;9.228;2023-01-01T08:57:56;1.13;;;0.98;;
335;SDS011;156;48.738;9.228;2023-01-01T09:00:23;1.80;;;1.08;;
335;SDS011;156;48.738;9.228;2023-01-01T09:02:50;0.60;;;0.40;;
335;SDS011;156;48.738;9.228;2023-01-01T09:05:17;0.80;;;0.70;;
335;SDS011;156;48.738;9.228;2023-01-01T09:07:44;0.95;;;0.95;;
335;SDS011;156;48.738;9.228;2023-01-01T09:10:12;1.05;;;0.70;;
335;SDS011;156;48.738;9.228;2023-01-01T09:12:39;1.70;;;0.98;;
335;SDS011;156;48.738;9.228;2023-01-01T09:15:08;3.20;;;1.17;;
335;SDS011;156;48.738;9.228;2023-01-01T09:17:40;0.50;;;0.30;;
335;SDS011;156;48.738;9.228;2023-01-01T09:20:08;0.93;;;0.82;;
335;SDS011;156;48.738;9.228;2023-01-01T09:22:35;1.35;;;0.52;;
335;SDS011;156;48.738;9.228;2023-01-01T09:25:02;2.28;;;1.55;;
335;SDS011;156;48.738;9.228;2023-01-01T09:27:30;1.50;;;1.38;;
335;SDS011;156;48.738;9.228;2023-01-01T09:29:57;2.65;;;1.95;;
335;SDS011;156;48.738;9.228;2023-01-01T09:32:24;1.38;;;1.30;;
335;SDS011;156;48.738;9.228;2023-01-01T09:34:51;1.60;;;0.68;;
335;SDS011;156;48.738;9.228;2023-01-01T09:37:18;1.05;;;0.95;;
335;SDS011;156;48.738;9.228;2023-01-01T09:39:45;2.47;;;2.15;;
335;SDS011;156;48.738;9.228;2023-01-01T09:42:17;0.60;;;0.50;;
335;SDS011;156;48.738;9.228;2023-01-01T09:44:56;1.15;;;1.02;;
335;SDS011;156;48.738;9.228;2023-01-01T09:47:33;0.80;;;0.52;;
335;SDS011;156;48.738;9.228;2023-01-01T09:50:04;4.32;;;0.85;;
335;SDS011;156;48.738;9.228;2023-01-01T09:52:38;2.58;;;1.48;;
335;SDS011;156;48.738;9.228;2023-01-01T09:55:11;0.63;;;0.57;;
335;SDS011;156;48.738;9.228;2023-01-01T09:57:45;1.20;;;0.90;;
335;SDS011;156;48.738;9.228;2023-01-01T10:00:17;0.60;;;0.40;;
335;SDS011;156;48.738;9.228;2023-01-01T10:02:53;2.45;;;2.25;;
335;SDS011;156;48.738;9.228;2023-01-01T10:05:30;0.50;;;0.30;;
335;SDS011;156;48.738;9.228;2023-01-01T10:08:04;0.80;;;0.50;;
335;SDS011;156;48.738;9.228;2023-01-01T10:10:37;0.60;;;0.55;;
335;SDS011;156;48.738;9.228;2023-01-01T10:13:09;2.20;;;1.13;;
335;SDS011;156;48.738;9.228;2023-01-01T10:15:48;3.92;;;1.00;;
335;SDS011;156;48.738;9.228;2023-01-01T10:18:22;0.50;;;0.20;;
335;SDS011;156;48.738;9.228;2023-01-01T10:20:57;0.90;;;0.38;;
335;SDS011;156;48.738;9.228;2023-01-01T10:23:30;1.15;;;1.05;;
335;SDS011;156;48.738;9.228;2023-01-01T10:26:01;0.50;;;0.20;;
335;SDS011;156;48.738;9.228;2023-01-01T10:28:38;4.05;;;2.85;;
335;SDS011;156;48.738;9.228;2023-01-01T10:31:15;0.50;;;0.20;;
335;SDS011;156;48.738;9.228;2023-01-01T10:33:43;0.50;;;0.20;;
335;SDS011;156;48.738;9.228;2023-01-01T10:36:12;11.15;;;1.40;;
335;SDS011;156;48.738;9.228;2023-01-01T10:38:41;2.35;;;1.27;;
335;SDS011;156;48.738;9.228;2023-01-01T10:41:09;0.50;;;0.20;;
335;SDS011;156;48.738;9.228;2023-01-01T10:43:38;1.02;;;0.82;;
335;SDS011;156;48.738;9.228;2023-01-01T10:46:05;1.13;;;1.02;;
335;SDS011;156;48.738;9.228;2023-01-01T10:48:37;0.50;;;0.20;;
335;SDS011;156;48.738;9.228;2023-01-01T10:51:04;0.50;;;0.20;;
335;SDS011;156;48.738;9.228;2023-01-01T10:53:33;0.50;;;0.20;;
335;SDS011;156;48.738;9.228;2023-01-01T10:56:04;0.50;;;0.20;;
335;SDS011;156;48.738;9.228;2023-01-01T10:58:35;1.65;;;1.08;;
335;SDS011;156;48.738;9.228;2023-01-01T11:01:05;1.40;;;0.30;;
335;SDS011;156;48.738;9.228;2023-01-01T11:03:33;1.73;;;0.77;;
335;SDS011;156;48.738;9.228;2023-01-01T11:06:02;0.70;;;0.40;;
335;SDS011;156;48.738;9.228;2023-01-01T11:08:32;1.33;;;0.70;;
335;SDS011;156;48.738;9.228;2023-01-01T11:11:01;0.50;;;0.30;;
335;SDS011;156;48.738;9.228;2023-01-01T11:13:29;0.60;;;0.60;;
335;SDS011;156;48.738;9.228;2023-01-01T11:15:58;0.50;;;0.40;;
335;SDS011;156;48.738;9.228;2023-01-01T11:18:26;0.50;;;0.20;;
335;SDS011;156;48.738;9.228;2023-01-01T11:20:59;0.98;;;0.70;;
335;SDS011;156;48.738;9.228;2023-01-01T11:23:31;0.60;;;0.55;;
335;SDS011;156;48.738;9.228;2023-01-01T11:26:01;0.60;;;0.40;;
335;SDS011;156;48.738;9.228;2023-01-01T11:28:30;2.15;;;0.43;;
335;SDS011;156;48.738;9.228;2023-01-01T11:31:00;0.50;;;0.20;;
335;SDS011;156;48.738;9.228;2023-01-01T11:33:31;0.50;;;0.30;;
335;SDS011;156;48.738;9.228;2023-01-01T11:36:02;1.40;;;1.30;;
335;SDS011;156;48.738;9.228;2023-01-01T11:38:31;1.20;;;0.73;;
335;SDS011;156;48.738;9.228;2023-01-01T11:41:01;0.80;;;0.30;;
335;SDS011;156;48.738;9.228;2023-01-01T11:43:31;0.50;;;0.20;;
335;SDS011;156;48.738;9.228;2023-01-01T11:46:05;1.48;;;1.45;;
335;SDS011;156;48.738;9.228;2023-01-01T11:48:39;1.50;;;0.57;;
335;SDS011;156;48.738;9.228;2023-01-01T11:51:10;1.55;;;1.52;;
335;SDS011;156;48.738;9.228;2023-01-01T11:53:54;1.20;;;1.10;;
335;SDS011;156;48.738;9.228;2023-01-01T11:56:35;0.55;;;0.38;;
335;SDS011;156;48.738;9.228;2023-01-01T11:59:02;2.00;;;1.88;;
335;SDS011;156;48.738;9.228;2023-01-01T12:01:38;0.82;;;0.40;;
335;SDS011;156;48.738;9.228;2023-01-01T12:04:10;0.70;;;0.60;;
335;SDS011;156;48.738;9.228;2023-01-01T12:06:45;0.82;;;0.73;;
335;SDS011;156;48.738;9.228;2023-01-01T12:09:18;0.60;;;0.40;;
335;SDS011;156;48.738;9.228;2023-01-01T12:11:49;5.57;;;0.93;;
335;SDS011;156;48.738;9.228;2023-01-01T12:14:18;0.68;;;0.68;;
335;SDS011;156;48.738;9.228;2023-01-01T12:16:51;0.50;;;0.40;;
335;SDS011;156;48.738;9.228;2023-01-01T12:19:25;0.88;;;0.70;;
335;SDS011;156;48.738;9.228;2023-01-01T12:21:58;0.93;;;0.93;;
335;SDS011;156;48.738;9.228;2023-01-01T12:24:27;1.55;;;1.05;;
335;SDS011;156;48.738;9.228;2023-01-01T12:27:04;1.20;;;0.80;;
335;SDS011;156;48.738;9.228;2023-01-01T12:29:44;1.02;;;0.93;;
335;SDS011;156;48.738;9.228;2023-01-01T12:32:33;1.13;;;0.50;;
335;SDS011;156;48.738;9.228;2023-01-01T12:35:17;0.50;;;0.40;;
335;SDS011;156;48.738;9.228;2023-01-01T12:38:06;1.70;;;0.80;;
335;SDS011;156;48.738;9.228;2023-01-01T12:40:38;0.50;;;0.30;;
335;SDS011;156;48.738;9.228;2023-01-01T12:43:15;0.50;;;0.40;;
335;SDS011;156;48.738;9.228;2023-01-01T12:45:59;0.70;;;0.52;;
335;SDS011;156;48.738;9.228;2023-01-01T12:51:54;0.60;;;0.40;;
335;SDS011;156;48.738;9.228;2023-01-01T12:54:36;1.25;;;1.00;;
335;SDS011;156;48.738;9.228;2023-01-01T12:57:31;5.43;;;0.95;;
335;SDS011;156;48.738;9.228;2023-01-01T13:00:03;0.50;;;0.30;;
335;SDS011;156;48.738;9.228;2023-01-01T13:02:40;3.65;;;0.68;;
335;SDS011;156;48.738;9.228;2023-01-01T13:05:14;0.70;;;0.50;;
335;SDS011;156;48.738;9.228;2023-01-01T13:07:46;4.82;;;4.53;;
335;SDS011;156;48.738;9.228;2023-01-01T13:10:24;0.95;;;0.88;;
335;SDS011;156;48.738;9.228;2023-01-01T13:12:58;1.27;;;0.63;;
335;SDS011;156;48.738;9.228;2023-01-01T13:15:42;0.80;;;0.70;;
335;SDS011;156;48.738;9.228;2023-01-01T13:18:24;0.50;;;0.40;;
335;SDS011;156;48.738;9.228;2023-01-01T13:20:54;0.50;;;0.30;;
335;SDS011;156;48.738;9.228;2023-01-01T13:32:05;0.60;;;0.50;;
335;SDS011;156;48.738;9.228;2023-01-01T13:34:35;0.60;;;0.40;;
335;SDS011;156;48.738;9.228;2023-01-01T13:37:24;0.88;;;0.77;;
335;SDS011;156;48.738;9.228;2023-01-01T13:43:20;1.50;;;1.40;;
335;SDS011;156;48.738;9.228;2023-01-01T13:45:52;0.50;;;0.40;;
335;SDS011;156;48.738;9.228;2023-01-01T13:48:33;0.85;;;0.85;;
335;SDS011;156;48.738;9.228;2023-01-01T13:51:29;1.00;;;0.98;;
335;SDS011;156;48.738;9.228;2023-01-01T13:54:32;0.60;;;0.40;;
335;SDS011;156;48.738;9.228;2023-01-01T13:57:41;2.47;;;2.15;;
335;SDS011;156;48.738;9.228;2023-01-01T14:00:33;0.50;;;0.30;;
335;SDS011;156;48.738;9.228;2023-01-01T14:03:09;0.80;;;0.60;;
335;SDS011;156;48.738;9.228;2023-01-01T14:05:39;3.25;;;3.05;;
335;SDS011;156;48.738;9.228;2023-01-01T14:08:24;0.50;;;0.30;;
335;SDS011;156;48.738;9.228;2023-01-01T14:10:59;0.50;;;0.30;;
335;SDS011;156;48.738;9.228;2023-01-01T14:13:27;0.50;;;0.30;;
335;SDS011;156;48.738;9.228;2023-01-01T14:15:58;1.80;;;1.20;;
335;SDS011;156;48.738;9.228;2023-01-01T14:18:29;0.50;;;0.40;;
335;SDS011;156;48.738;9.228;2023-01-01T14:20:58;2.40;;;2.20;;
335;SDS011;156;48.738;9.228;2023-01-01T14:23:27;0.82;;;0.80;;
335;SDS011;156;48.738;9.228;2023-01-01T14:25:56;0.50;;;0.30;;
335;SDS011;156;48.738;9.228;2023-01-01T14:28:26;2.00;;;0.60;;
335;SDS011;156;48.738;9.228;2023-01-01T14:30:55;0.50;;;0.30;;
335;SDS011;156;48.738;9.228;2023-01-01T14:33:26;0.50;;;0.30;;
335;SDS011;156;48.738;9.228;2023-01-01T14:35:56;0.50;;;0.30;;
335;SDS011;156;48.738;9.228;2023-01-01T14:38:25;0.60;;;0.40;;
335;SDS011;156;48.738;9.228;2023-01-01T14:41:07;3.92;;;1.10;;
335;SDS011;156;48.738;9.228;2023-01-01T14:43:39;0.85;;;0.75;;
335;SDS011;156;48.738;9.228;2023-01-01T14:46:12;0.85;;;0.82;;
335;SDS011;156;48.738;9.228;2023-01-01T14:48:41;0.50;;;0.30;;
335;SDS011;156;48.738;9.228;2023-01-01T14:51:10;0.50;;;0.30;;
335;SDS011;156;48.738;9.228;2023-01-01T14:53:40;0.60;;;0.50;;
335;SDS011;156;48.738;9.228;2023-01-01T14:56:08;2.00;;;1.60;;
335;SDS011;156;48.738;9.228;2023-01-01T14:58:35;1.02;;;0.82;;
335;SDS011;156;48.738;9.228;2023-01-01T15:01:14;3.47;;;2.42;;
335;SDS011;156;48.738;9.228;2023-01-01T15:03:53;3.22;;;1.23;;
335;SDS011;156;48.738;9.228;2023-01-01T15:06:23;0.50;;;0.30;;
335;SDS011;156;48.738;9.228;2023-01-01T15:08:51;0.98;;;0.88;;
335;SDS011;156;48.738;9.228;2023-01-01T15:11:18;0.60;;;0.60;;
335;SDS011;156;48.738;9.228;2023-01-01T15:13:52;1.10;;;0.93;;
335;SDS011;156;48.738;9.228;2023-01-01T15:16:22;0.50;;;0.30;;
335;SDS011;156;48.738;9.228;2023-01-01T15:18:49;0.50;;;0.30;;
335;SDS011;156;48.738;9.228;2023-01-01T15:21:20;0.80;;;0.68;;
335;SDS011;156;48.738;9.228;2023-01-01T15:24:00;0.50;;;0.30;;
335;SDS011;156;48.738;9.228;2023-01-01T15:26:29;1.83;;;1.73;;
335;SDS011;156;48.738;9.228;2023-01-01T15:29:00;0.50;;;0.30;;
335;SDS011;156;48.738;9.228;2023-01-01T15:31:35;0.50;;;0.35;;
335;SDS011;156;48.738;9.228;2023-01-01T15:34:05;0.82;;;0.70;;
335;SDS011;156;48.738;9.228;2023-01-01T15:36:41;0.50;;;0.20;;
335;SDS011;156;48.738;9.228;2023-01-01T15:39:08;1.10;;;1.00;;
335;SDS011;156;48.738;9.228;2023-01-01T15:41:40;0.60;;;0.55;;
335;SDS011;156;48.738;9.228;2023-01-01T15:44:20;1.15;;;0.50;;
335;SDS011;156;48.738;9.228;2023-01-01T15:47:01;0.50;;;0.20;;
335;SDS011;156;48.738;9.228;2023-01-01T15:49:30;1.05;;;0.43;;
335;SDS011;156;48.738;9.228;2023-01-01T15:51:58;2.38;;;1.52;;
335;SDS011;156;48.738;9.228;2023-01-01T15:54:27;0.70;;;0.65;;
335;SDS011;156;48.738;9.228;2023-01-01T15:56:55;3.88;;;1.58;;
335;SDS011;156;48.738;9.228;2023-01-01T15:59:23;3.20;;;0.95;;
335;SDS011;156;48.738;9.228;2023-01-01T16:02:02;3.53;;;1.15;;
335;SDS011;156;48.738;9.228;2023-01-01T16:04:37;1.25;;;0.73;;
335;SDS011;156;48.738;9.228;2023-01-01T16:07:04;2.22;;;2.05;;
335;SDS011;156;48.738;9.228;2023-01-01T16:09:41;1.00;;;0.73;;
335;SDS011;156;48.738;9.228;2023-01-01T16:12:08;1.50;;;1.45;;
335;SDS011;156;48.738;9.228;2023-01-01T16:14:35;1.45;;;1.05;;
335;SDS011;156;48.738;9.228;2023-01-01T16:17:03;1.85;;;1.38;;
335;SDS011;156;48.738;9.228;2023-01-01T16:19:30;1.23;;;1.15;;
335;SDS011;156;48.738;9.228;2023-01-01T16:21:58;0.50;;;0.20;;